Time;durP1;ratioP1;P1;durP2;ratioP2;P2;SDS_P1;SDS_P2;PMS_P1;PMS_P2;Temp;Humidity;BMP_temperature;BMP_pressure;BME280_temperature;BME280_humidity;BME280_pressure;Samples;Min_cycle;Max_cycle;Signal;HPM_P1;HPM_P2
2023/06/05 00:02:26;;;;;;;4.78;2.88;;;12.90;99.90;;;;;;4950486;28;20043;-90
2023/06/05 00:04:53;;;;;;;9.45;3.60;;;13.00;99.90;;;;;;4964287;28;20061;-90
2023/06/05 00:07:21;;;;;;;7.88;3.60;;;12.90;99.90;;;;;;4955032;28;20567;-89
2023/06/05 00:09:47;;;;;;;7.50;3.90;;;13.00;99.90;;;;;;4953035;28;20097;-89
2023/06/05 00:12:13;;;;;;;7.47;3.75;;;12.90;99.90;;;;;;4957716;28;20039;-90
2023/06/05 00:14:45;;;;;;;8.93;3.95;;;12.80;99.90;;;;;;4942164;28;20043;-90
2023/06/05 00:17:11;;;;;;;9.07;4.72;;;12.90;99.90;;;;;;4967170;28;20035;-90
2023/06/05 00:19:40;;;;;;;6.70;3.55;;;12.90;99.90;;;;;;4957282;28;20042;-91
2023/06/05 00:22:06;;;;;;;13.07;4.25;;;12.90;99.90;;;;;;4949791;28;20705;-89
2023/06/05 00:24:32;;;;;;;9.65;3.90;;;12.70;99.90;;;;;;4963146;28;20046;-90
2023/06/05 00:26:58;;;;;;;9.27;3.78;;;12.90;99.90;;;;;;4934165;29;20050;-90
2023/06/05 00:29:23;;;;;;;6.70;3.53;;;12.90;99.90;;;;;;4944959;28;20059;-89
2023/06/05 00:31:49;;;;;;;10.23;4.40;;;12.90;99.90;;;;;;4950822;28;20057;-90
2023/06/05 00:34:15;;;;;;;8.43;3.88;;;12.90;99.90;;;;;;4946781;28;20089;-90
2023/06/05 00:36:41;;;;;;;8.45;4.45;;;12.80;99.90;;;;;;4946835;28;20043;-90
2023/06/05 00:39:08;;;;;;;8.10;3.97;;;12.80;99.90;;;;;;4965127;28;20039;-90
2023/06/05 00:41:37;;;;;;;6.97;3.78;;;12.70;99.90;;;;;;4938708;28;20050;-91
2023/06/05 00:44:03;;;;;;;9.23;4.40;;;12.70;99.90;;;;;;4944627;28;20069;-89
2023/06/05 00:46:29;;;;;;;7.75;4.50;;;12.70;99.90;;;;;;4968698;28;20043;-90
2023/06/05 00:48:54;;;;;;;6.40;3.75;;;13.20;99.90;;;;;;4958622;28;20062;-90
2023/06/05 00:51:21;;;;;;;6.82;3.60;;;12.80;99.90;;;;;;4952283;28;20046;-90
2023/06/05 00:53:47;;;;;;;10.63;5.13;;;12.70;99.90;;;;;;4951099;28;20046;-89
2023/06/05 00:56:13;;;;;;;10.77;4.97;;;12.50;99.90;;;;;;4971706;28;20070;-90
2023/06/05 00:58:39;;;;;;;7.60;3.78;;;12.50;99.90;;;;;;4959094;28;20042;-90
2023/06/05 01:01:10;;;;;;;10.93;4.90;;;12.50;99.90;;;;;;4940098;28;20342;-90
2023/06/05 01:03:36;;;;;;;10.13;3.92;;;12.50;99.90;;;;;;4975147;28;20039;-89
2023/06/05 01:06:05;;;;;;;10.55;5.03;;;12.50;99.90;;;;;;4951629;28;20057;-90
2023/06/05 01:08:41;;;;;;;8.80;4.68;;;12.50;99.90;;;;;;4975084;28;20039;-89
2023/06/05 01:11:34;;;;;;;8.55;4.47;;;12.50;99.90;;;;;;4962249;28;20084;-89
2023/06/05 01:14:16;;;;;;;6.32;3.63;;;12.40;99.90;;;;;;4938309;28;20120;-90
2023/06/05 01:16:47;;;;;;;10.15;4.15;;;12.40;99.90;;;;;;4967067;28;20105;-89
2023/06/05 01:19:14;;;;;;;8.57;4.40;;;12.40;99.90;;;;;;4959931;28;20070;-89
2023/06/05 01:21:41;;;;;;;8.52;4.53;;;12.30;99.90;;;;;;4968174;28;20074;-90
2023/06/05 01:24:06;;;;;;;7.82;4.03;;;12.30;99.90;;;;;;4951483;28;20409;-89
2023/06/05 01:27:03;;;;;;;9.57;4.88;;;12.30;99.90;;;;;;4966856;28;20050;-90
2023/06/05 01:29:55;;;;;;;7.53;3.90;;;12.30;99.90;;;;;;4932751;28;20056;-90
2023/06/05 01:32:31;;;;;;;7.68;4.10;;;12.30;99.90;;;;;;4953760;29;20094;-89
2023/06/05 01:34:58;;;;;;;9.70;5.00;;;12.30;99.90;;;;;;4952991;29;20055;-89
2023/06/05 01:37:26;;;;;;;7.63;4.57;;;12.30;99.90;;;;;;4959991;28;20162;-89
2023/06/05 01:39:54;;;;;;;6.88;3.80;;;12.30;99.90;;;;;;4957583;28;20219;-89
2023/06/05 01:42:22;;;;;;;8.50;4.35;;;12.30;99.90;;;;;;4950482;28;20047;-89
2023/06/05 01:44:49;;;;;;;6.25;4.25;;;12.20;99.90;;;;;;4954528;28;20106;-89
2023/06/05 01:47:15;;;;;;;7.80;3.75;;;12.20;99.90;;;;;;4947053;28;20110;-89
2023/06/05 01:49:42;;;;;;;8.63;3.83;;;12.20;99.90;;;;;;4950858;28;20035;-90
2023/06/05 01:52:08;;;;;;;7.68;3.72;;;12.20;99.90;;;;;;4950650;28;20074;-90
2023/06/05 01:54:34;;;;;;;7.60;3.90;;;12.20;99.90;;;;;;4954471;28;20070;-90
2023/06/05 01:57:00;;;;;;;5.95;3.42;;;12.20;99.90;;;;;;4953421;28;20047;-89
2023/06/05 01:59:25;;;;;;;9.88;4.32;;;12.20;99.90;;;;;;4951994;28;20410;-90
2023/06/05 02:01:51;;;;;;;8.65;3.47;;;12.20;99.90;;;;;;4957165;29;20046;-89
2023/06/05 02:04:18;;;;;;;8.05;3.28;;;12.20;99.90;;;;;;4938044;29;20054;-89
2023/06/05 02:06:44;;;;;;;7.55;3.70;;;12.20;99.90;;;;;;4955928;28;20576;-90
2023/06/05 02:09:10;;;;;;;8.82;3.42;;;12.20;99.90;;;;;;4949627;28;20445;-90
2023/06/05 02:11:39;;;;;;;11.02;3.85;;;12.20;99.90;;;;;;4954012;28;20082;-89
2023/06/05 02:14:12;;;;;;;6.55;3.67;;;12.20;99.90;;;;;;4951327;28;22480;-89
2023/06/05 02:16:39;;;;;;;9.10;4.72;;;12.20;99.90;;;;;;4953529;28;20044;-89
2023/06/05 02:19:06;;;;;;;6.13;3.70;;;12.20;99.90;;;;;;4949630;29;20287;-90
2023/06/05 02:21:33;;;;;;;7.25;3.05;;;12.20;99.90;;;;;;4940974;29;20102;-89
2023/06/05 02:24:03;;;;;;;8.63;3.88;;;12.20;99.90;;;;;;4938560;29;20495;-89
2023/06/05 02:26:29;;;;;;;5.72;3.33;;;12.20;99.90;;;;;;4955311;29;20047;-90
2023/06/05 02:28:56;;;;;;;7.38;3.53;;;12.20;99.90;;;;;;4954237;28;20062;-90
2023/06/05 02:31:24;;;;;;;6.43;3.78;;;12.20;99.90;;;;;;4949256;29;20039;-89
2023/06/05 02:33:55;;;;;;;7.40;3.90;;;12.20;99.90;;;;;;4956764;28;20510;-90
2023/06/05 02:36:24;;;;;;;8.73;3.63;;;12.20;99.90;;;;;;4951112;28;20099;-89
2023/06/05 02:38:50;;;;;;;6.00;3.85;;;12.20;99.90;;;;;;4969338;28;20051;-90
2023/06/05 02:41:21;;;;;;;5.55;3.13;;;12.20;99.90;;;;;;4957274;29;20046;-89
2023/06/05 02:43:47;;;;;;;7.78;3.50;;;12.20;99.90;;;;;;4941316;29;20353;-90
2023/06/05 02:46:13;;;;;;;10.85;3.90;;;12.20;99.90;;;;;;4955223;28;20462;-90
2023/06/05 02:48:39;;;;;;;6.70;3.60;;;12.20;99.90;;;;;;4954191;28;20039;-90
2023/06/05 02:51:06;;;;;;;6.07;3.38;;;12.20;99.90;;;;;;4938127;28;20083;-90
2023/06/05 02:53:32;;;;;;;6.40;3.05;;;12.20;99.90;;;;;;4957615;28;20039;-90
2023/06/05 02:56:01;;;;;;;7.30;3.53;;;12.20;99.90;;;;;;4954820;28;20050;-89
2023/06/05 02:58:28;;;;;;;6.95;3.20;;;12.20;99.90;;;;;;4956556;29;20498;-90
2023/06/05 03:00:55;;;;;;;6.85;3.30;;;12.20;99.90;;;;;;4956618;28;20063;-90
2023/06/05 03:03:26;;;;;;;7.40;3.60;;;12.20;99.90;;;;;;4951177;29;20079;-90
2023/06/05 03:05:53;;;;;;;6.05;3.78;;;12.20;99.90;;;;;;4951252;29;20122;-91
2023/06/05 03:08:19;;;;;;;10.10;4.43;;;12.20;99.90;;;;;;4951503;28;20074;-90
2023/06/05 03:10:44;;;;;;;7.82;4.10;;;12.20;99.90;;;;;;4954046;29;20047;-89
2023/06/05 03:13:10;;;;;;;10.85;4.63;;;12.10;99.90;;;;;;4948385;28;20446;-90
2023/06/05 03:15:36;;;;;;;8.20;4.22;;;12.10;99.90;;;;;;4954629;28;20126;-89
2023/06/05 03:18:01;;;;;;;7.63;3.58;;;12.10;99.90;;;;;;4952549;29;20043;-90
2023/06/05 03:20:27;;;;;;;5.80;2.85;;;12.10;99.90;;;;;;4949355;28;20126;-90
2023/06/05 03:22:56;;;;;;;5.85;4.00;;;12.10;99.90;;;;;;4959508;28;20052;-90
2023/06/05 03:25:22;;;;;;;8.88;4.45;;;12.20;99.90;;;;;;4946530;28;20047;-90
2023/06/05 03:27:49;;;;;;;11.40;3.92;;;12.20;99.90;;;;;;4946815;28;20054;-90
2023/06/05 03:30:16;;;;;;;6.30;3.25;;;12.10;99.90;;;;;;4952466;28;20655;-90
2023/06/05 03:32:42;;;;;;;6.40;3.67;;;12.10;99.90;;;;;;4955260;28;20104;-88
2023/06/05 03:35:08;;;;;;;5.88;2.60;;;12.20;99.90;;;;;;4972791;28;20054;-89
2023/06/05 03:37:34;;;;;;;6.55;3.88;;;12.20;99.90;;;;;;4954311;28;20471;-88
2023/06/05 03:39:59;;;;;;;7.90;3.92;;;12.20;99.90;;;;;;4965183;28;20138;-88
2023/06/05 03:42:25;;;;;;;6.68;3.47;;;12.20;99.90;;;;;;4949228;28;20766;-87
2023/06/05 03:44:50;;;;;;;7.07;3.45;;;12.20;99.90;;;;;;4974696;28;20505;-89
2023/06/05 03:47:16;;;;;;;6.30;3.58;;;12.20;99.90;;;;;;4971253;28;20037;-88
2023/06/05 03:49:47;;;;;;;7.13;3.22;;;12.20;99.90;;;;;;4965547;28;20045;-87
2023/06/05 03:52:14;;;;;;;6.13;3.17;;;12.20;99.90;;;;;;4967981;28;20101;-87
2023/06/05 03:54:40;;;;;;;7.15;3.40;;;12.20;99.90;;;;;;4951136;28;20131;-88
2023/06/05 03:57:09;;;;;;;6.35;2.90;;;12.20;99.90;;;;;;4953418;28;20151;-88
2023/06/05 03:59:35;;;;;;;6.55;3.38;;;12.20;99.90;;;;;;4952396;28;20031;-89
2023/06/05 04:02:02;;;;;;;9.60;3.85;;;12.20;99.90;;;;;;4970608;28;20114;-89
2023/06/05 04:04:27;;;;;;;5.90;3.05;;;12.20;99.90;;;;;;4970652;28;20477;-90
2023/06/05 04:06:55;;;;;;;7.30;3.65;;;12.20;99.90;;;;;;4969954;28;20097;-90
2023/06/05 04:09:21;;;;;;;7.50;3.78;;;12.20;99.90;;;;;;4965780;28;20127;-90
2023/06/05 04:11:47;;;;;;;6.65;3.67;;;12.20;99.90;;;;;;4971131;28;20078;-90
2023/06/05 04:14:14;;;;;;;5.25;3.28;;;12.20;99.90;;;;;;4949317;28;20127;-90
2023/06/05 04:16:42;;;;;;;7.63;3.40;;;12.20;99.90;;;;;;4963302;28;20043;-90
2023/06/05 04:19:09;;;;;;;6.35;2.92;;;12.30;99.90;;;;;;4959139;28;20139;-90
2023/06/05 04:21:37;;;;;;;5.38;2.95;;;12.30;99.90;;;;;;4955295;28;20047;-89
2023/06/05 04:24:06;;;;;;;7.05;3.50;;;12.40;99.90;;;;;;4964567;28;20117;-89
2023/06/05 04:26:36;;;;;;;6.47;4.53;;;12.40;99.90;;;;;;4963210;28;20050;-89
2023/06/05 04:29:04;;;;;;;7.85;4.35;;;12.40;99.90;;;;;;4948525;28;20519;-90
2023/06/05 04:31:30;;;;;;;8.27;5.55;;;12.40;99.90;;;;;;4962596;28;20536;-91
2023/06/05 04:33:56;;;;;;;9.48;5.55;;;12.50;99.90;;;;;;4968824;28;20035;-93
2023/06/05 04:36:22;;;;;;;7.90;4.47;;;12.50;99.90;;;;;;4967889;28;20486;-91
2023/06/05 04:38:48;;;;;;;8.05;6.20;;;12.50;99.90;;;;;;4970103;28;20094;-92
2023/06/05 04:41:14;;;;;;;6.43;3.42;;;12.50;99.90;;;;;;4969069;28;20042;-92
2023/06/05 04:43:40;;;;;;;9.60;5.80;;;12.50;99.90;;;;;;4969136;28;20490;-94
2023/06/05 04:46:05;;;;;;;10.38;7.35;;;12.50;99.90;;;;;;4971191;28;20061;-92
2023/06/05 04:48:31;;;;;;;9.70;6.32;;;12.50;99.90;;;;;;4971494;28;20043;-91
2023/06/05 04:50:57;;;;;;;9.45;6.28;;;12.60;99.90;;;;;;4951954;28;20126;-92
2023/06/05 04:53:22;;;;;;;7.82;5.57;;;12.50;99.90;;;;;;4958634;28;20050;-92
2023/06/05 04:55:49;;;;;;;9.48;6.30;;;12.50;99.90;;;;;;4975555;28;20078;-92
2023/06/05 04:58:16;;;;;;;11.93;7.70;;;12.50;99.90;;;;;;4951261;28;20094;-92
2023/06/05 05:00:44;;;;;;;8.40;5.90;;;12.50;99.90;;;;;;4948930;28;20051;-92
2023/06/05 05:03:13;;;;;;;8.98;5.53;;;12.50;99.90;;;;;;4971027;28;20049;-92
2023/06/05 05:05:39;;;;;;;8.50;5.03;;;12.50;99.90;;;;;;4950255;28;20046;-94
2023/06/05 05:08:05;;;;;;;11.55;5.63;;;12.50;99.90;;;;;;4951770;28;20054;-91
2023/06/05 05:10:31;;;;;;;7.00;4.50;;;12.50;99.90;;;;;;4949319;28;20054;-91
2023/06/05 05:13:00;;;;;;;6.28;4.28;;;12.50;99.90;;;;;;4973270;28;20042;-92
2023/06/05 05:15:27;;;;;;;8.43;4.47;;;12.50;99.90;;;;;;4957965;28;20047;-93
2023/06/05 05:17:52;;;;;;;6.10;4.00;;;12.50;99.90;;;;;;4975634;28;20043;-93
2023/06/05 05:20:19;;;;;;;6.80;4.10;;;12.50;99.90;;;;;;4953620;28;20070;-92
2023/06/05 05:22:45;;;;;;;8.18;3.42;;;12.50;99.90;;;;;;4973854;28;20043;-92
2023/06/05 05:25:11;;;;;;;6.65;3.33;;;12.50;99.90;;;;;;4944051;28;20055;-92
2023/06/05 05:27:36;;;;;;;6.35;3.00;;;12.50;99.90;;;;;;4977755;28;20039;-92
2023/06/05 05:30:02;;;;;;;4.97;2.95;;;12.60;99.90;;;;;;4955037;28;20130;-93
2023/06/05 05:32:28;;;;;;;5.53;3.08;;;12.60;99.90;;;;;;4979044;28;20043;-89
2023/06/05 05:34:54;;;;;;;5.03;2.60;;;12.60;99.90;;;;;;4981418;28;20057;-92
2023/06/05 05:37:20;;;;;;;5.72;2.92;;;12.60;99.90;;;;;;4974502;28;20027;-93
2023/06/05 05:39:46;;;;;;;4.75;3.13;;;12.70;99.90;;;;;;4976269;28;20038;-94
2023/06/05 05:42:11;;;;;;;5.75;2.55;;;12.70;99.90;;;;;;4965932;28;20031;-96
2023/06/05 05:44:37;;;;;;;7.90;3.47;;;12.80;99.90;;;;;;4963768;28;20058;-91
2023/06/05 05:47:03;;;;;;;5.75;2.95;;;13.00;99.90;;;;;;4976749;28;20034;-92
2023/06/05 05:49:28;;;;;;;5.35;2.90;;;12.80;99.90;;;;;;4957842;28;20112;-91
2023/06/05 05:51:54;;;;;;;6.28;3.35;;;12.90;99.90;;;;;;4982952;28;20039;-94
2023/06/05 05:54:23;;;;;;;4.80;2.80;;;12.90;99.90;;;;;;4961065;28;20422;-92
2023/06/05 05:56:49;;;;;;;5.95;2.83;;;12.90;99.90;;;;;;4954620;28;20039;-93
2023/06/05 05:59:15;;;;;;;7.15;3.20;;;12.90;99.90;;;;;;4982349;28;20125;-92
2023/06/05 06:01:42;;;;;;;6.28;3.42;;;13.00;99.90;;;;;;4962403;28;20039;-93
2023/06/05 06:04:07;;;;;;;6.72;3.45;;;13.00;99.90;;;;;;4969538;28;20043;-91
2023/06/05 06:06:33;;;;;;;8.43;3.20;;;13.10;99.90;;;;;;4963383;28;20045;-92
2023/06/05 06:08:58;;;;;;;5.60;2.83;;;13.10;99.90;;;;;;4961302;28;20039;-92
2023/06/05 06:11:26;;;;;;;6.60;3.10;;;13.20;99.90;;;;;;4960663;28;20131;-92
2023/06/05 06:13:52;;;;;;;5.93;3.10;;;13.20;99.90;;;;;;4964076;28;20094;-91
2023/06/05 06:16:18;;;;;;;5.05;2.80;;;13.30;99.90;;;;;;4968991;28;20070;-90
2023/06/05 06:18:44;;;;;;;5.40;2.72;;;13.30;99.90;;;;;;4974752;28;20062;-95
2023/06/05 06:21:09;;;;;;;7.90;3.03;;;13.40;99.90;;;;;;4959616;28;20051;-92
2023/06/05 06:23:35;;;;;;;6.32;2.80;;;13.50;99.90;;;;;;4958083;28;20055;-91
2023/06/05 06:26:01;;;;;;;5.75;2.92;;;13.50;99.90;;;;;;4958295;28;20051;-92
2023/06/05 06:28:27;;;;;;;6.00;3.58;;;13.50;99.90;;;;;;4984050;28;20053;-88
2023/06/05 06:30:53;;;;;;;4.95;2.63;;;13.60;99.90;;;;;;4986624;28;20086;-91
2023/06/05 06:33:18;;;;;;;5.72;3.20;;;13.60;99.90;;;;;;4986871;28;20043;-91
2023/06/05 06:35:44;;;;;;;5.65;2.72;;;13.70;99.90;;;;;;4963592;28;20054;-90
2023/06/05 06:38:10;;;;;;;4.97;2.88;;;13.70;99.90;;;;;;4986587;28;20303;-92
2023/06/05 06:40:35;;;;;;;5.57;3.30;;;13.80;99.90;;;;;;4981409;28;20039;-91
2023/06/05 06:43:01;;;;;;;6.03;3.13;;;13.80;99.90;;;;;;4964135;28;20058;-89
2023/06/05 06:45:27;;;;;;;5.47;3.40;;;13.90;99.90;;;;;;4979405;28;20086;-91
2023/06/05 06:47:53;;;;;;;4.10;2.22;;;13.80;99.90;;;;;;4979273;28;20054;-89
2023/06/05 06:50:18;;;;;;;5.05;2.63;;;13.90;99.90;;;;;;4969512;28;20066;-90
2023/06/05 06:52:47;;;;;;;6.07;3.83;;;14.00;99.90;;;;;;4964948;28;20054;-90
2023/06/05 06:55:12;;;;;;;4.22;2.25;;;13.90;99.90;;;;;;4964833;28;20039;-91
2023/06/05 06:57:38;;;;;;;5.78;3.03;;;14.00;99.90;;;;;;4983384;28;20038;-91
2023/06/05 07:00:09;;;;;;;6.18;2.95;;;14.00;99.90;;;;;;4970986;28;20027;-91
2023/06/05 07:02:38;;;;;;;8.15;3.22;;;14.00;99.90;;;;;;4974405;28;20043;-91
2023/06/05 07:05:04;;;;;;;4.32;2.35;;;13.90;99.90;;;;;;4980930;28;20038;-87
2023/06/05 07:07:30;;;;;;;7.65;2.75;;;13.90;99.90;;;;;;4948597;28;20110;-91
2023/06/05 07:09:57;;;;;;;5.13;2.65;;;14.00;99.90;;;;;;4977976;28;20081;-90
2023/06/05 07:12:23;;;;;;;4.95;3.05;;;14.40;99.90;;;;;;4959151;28;20095;-91
2023/06/05 07:14:49;;;;;;;4.80;2.58;;;14.30;99.90;;;;;;4977955;28;20078;-91
2023/06/05 07:17:15;;;;;;;4.70;2.15;;;14.50;99.90;;;;;;4956150;28;20495;-92
2023/06/05 07:19:41;;;;;;;4.28;2.30;;;14.70;99.90;;;;;;4975972;28;20039;-90
2023/06/05 07:22:06;;;;;;;8.57;2.50;;;14.80;99.90;;;;;;4955320;29;20051;-91
2023/06/05 07:24:38;;;;;;;5.18;2.63;;;15.10;99.90;;;;;;4981844;28;20061;-90
2023/06/05 07:27:04;;;;;;;4.50;2.33;;;15.10;99.90;;;;;;4965392;28;20047;-90
2023/06/05 07:29:30;;;;;;;5.97;2.22;;;15.10;99.90;;;;;;4970332;28;20055;-92
2023/06/05 07:31:57;;;;;;;4.03;2.13;;;15.20;99.90;;;;;;4977278;28;20054;-91
2023/06/05 07:34:26;;;;;;;5.13;1.90;;;15.30;99.90;;;;;;4958080;28;20051;-92
2023/06/05 07:36:52;;;;;;;4.10;1.80;;;15.50;99.90;;;;;;4965206;28;20038;-95
2023/06/05 07:39:22;;;;;;;5.47;2.40;;;15.70;99.90;;;;;;4965532;28;20042;-91
2023/06/05 07:41:48;;;;;;;5.72;2.60;;;16.00;99.90;;;;;;4965987;28;20030;-92
2023/06/05 07:44:16;;;;;;;3.92;1.75;;;16.20;99.90;;;;;;4962046;28;20035;-91
2023/06/05 07:46:46;;;;;;;3.78;1.90;;;16.40;99.90;;;;;;4951187;28;20046;-92
2023/06/05 07:49:12;;;;;;;5.68;1.92;;;16.60;99.90;;;;;;4948785;28;20042;-91
2023/06/05 07:51:38;;;;;;;4.93;2.05;;;16.70;99.90;;;;;;4957050;28;20070;-91
2023/06/05 07:54:09;;;;;;;4.32;2.00;;;16.80;99.90;;;;;;4962828;28;20031;-91
2023/06/05 07:56:36;;;;;;;4.22;2.30;;;16.90;99.90;;;;;;4981422;28;20055;-91
2023/06/05 07:59:02;;;;;;;8.02;2.25;;;17.00;99.90;;;;;;4964873;28;20039;-91
2023/06/05 08:01:36;;;;;;;5.30;2.28;;;17.10;99.90;;;;;;4980201;28;20042;-90
2023/06/05 08:04:10;;;;;;;4.40;2.10;;;17.20;99.90;;;;;;4960268;28;20047;-91
2023/06/05 08:06:37;;;;;;;5.78;2.38;;;17.30;99.90;;;;;;4963865;28;20039;-92
2023/06/05 08:09:04;;;;;;;3.72;2.15;;;17.30;99.90;;;;;;4944854;28;20042;-91
2023/06/05 08:11:30;;;;;;;5.65;2.38;;;17.30;99.90;;;;;;4978052;28;20043;-91
2023/06/05 08:13:56;;;;;;;5.68;2.35;;;17.30;99.90;;;;;;4959225;28;20556;-91
2023/06/05 08:16:22;;;;;;;5.75;2.75;;;17.40;99.90;;;;;;4957713;28;20058;-92
2023/06/05 08:18:47;;;;;;;3.78;2.13;;;17.30;99.90;;;;;;4980982;28;20038;-91
2023/06/05 08:21:13;;;;;;;4.90;2.35;;;17.40;99.90;;;;;;4948578;28;20102;-91
2023/06/05 08:23:39;;;;;;;4.57;2.13;;;17.50;99.90;;;;;;4950648;28;20094;-91
2023/06/05 08:26:10;;;;;;;5.88;2.30;;;17.50;99.90;;;;;;4963833;28;20061;-91
2023/06/05 08:28:40;;;;;;;4.25;2.20;;;17.60;99.90;;;;;;4960164;28;20154;-92
2023/06/05 08:31:10;;;;;;;5.57;2.47;;;17.60;99.90;;;;;;4959604;28;20057;-91
2023/06/05 08:33:37;;;;;;;5.45;2.75;;;17.60;99.90;;;;;;4964295;28;20040;-91
2023/06/05 08:36:04;;;;;;;5.15;2.38;;;17.60;99.90;;;;;;4963539;28;20122;-91
2023/06/05 08:38:30;;;;;;;4.93;2.70;;;17.70;99.90;;;;;;4971858;28;20054;-92
2023/06/05 08:41:00;;;;;;;5.25;2.53;;;17.80;99.90;;;;;;4980766;28;20098;-92
2023/06/05 08:43:26;;;;;;;4.82;2.38;;;17.80;99.90;;;;;;4962395;28;20053;-91
2023/06/05 08:45:55;;;;;;;5.47;2.10;;;17.90;99.90;;;;;;4964999;28;20039;-91
2023/06/05 08:48:21;;;;;;;4.53;2.38;;;18.00;99.90;;;;;;4945297;28;20046;-93
2023/06/05 08:50:48;;;;;;;4.53;2.25;;;18.00;99.90;;;;;;4959342;28;20050;-94
2023/06/05 08:53:17;;;;;;;3.75;1.77;;;18.10;99.90;;;;;;4962345;28;20132;-92
2023/06/05 08:55:45;;;;;;;5.07;2.47;;;18.20;99.90;;;;;;4978025;28;20038;-93
2023/06/05 08:58:13;;;;;;;6.63;2.40;;;18.40;99.90;;;;;;4972515;28;20031;-92
2023/06/05 09:00:39;;;;;;;3.85;1.85;;;18.50;99.90;;;;;;4962159;28;20106;-93
2023/06/05 09:03:05;;;;;;;5.10;2.60;;;18.60;99.90;;;;;;4960481;28;20050;-92
2023/06/05 09:05:32;;;;;;;6.15;2.58;;;18.60;99.90;;;;;;4981120;28;20039;-91
2023/06/05 09:07:58;;;;;;;4.93;2.30;;;18.70;99.90;;;;;;4979529;28;20367;-92
2023/06/05 09:10:27;;;;;;;5.20;3.35;;;18.80;99.90;;;;;;4976102;28;20042;-92
2023/06/05 09:12:58;;;;;;;6.03;2.90;;;18.70;99.90;;;;;;4943411;28;20038;-92
2023/06/05 09:15:28;;;;;;;5.90;3.03;;;18.90;99.90;;;;;;4958758;28;20125;-94
2023/06/05 09:18:10;;;;;;;5.28;2.78;;;18.90;99.90;;;;;;4956924;28;20055;-93
2023/06/05 09:20:38;;;;;;;5.60;2.72;;;18.90;99.90;;;;;;4969759;28;20046;-93
2023/06/05 09:23:26;;;;;;;5.03;2.42;;;19.00;99.90;;;;;;4964363;28;20034;-92
2023/06/05 09:25:54;;;;;;;4.72;2.85;;;19.10;99.90;;;;;;4977414;28;20035;-94
2023/06/05 09:28:20;;;;;;;5.57;2.97;;;19.10;99.90;;;;;;4963113;28;20070;-95
2023/06/05 09:30:57;;;;;;;5.07;2.58;;;19.20;99.90;;;;;;4966121;28;20058;-95
2023/06/05 09:33:23;;;;;;;7.80;3.50;;;19.20;99.90;;;;;;4978308;28;20118;-94
2023/06/05 09:36:10;;;;;;;5.32;3.13;;;19.30;99.90;;;;;;4975703;28;20095;-94
2023/06/05 09:38:38;;;;;;;6.40;3.63;;;19.30;99.90;;;;;;4980218;28;20062;-92
2023/06/05 09:41:07;;;;;;;5.88;2.78;;;19.30;99.90;;;;;;4948359;28;20047;-92
2023/06/05 09:43:33;;;;;;;6.30;3.03;;;19.40;99.90;;;;;;4941254;28;20047;-93
2023/06/05 09:46:05;;;;;;;6.97;3.38;;;19.50;99.90;;;;;;4956304;28;20058;-93
2023/06/05 09:48:32;;;;;;;4.90;3.10;;;19.60;99.90;;;;;;4972311;28;20046;-96
2023/06/05 09:51:19;;;;;;;7.70;3.30;;;19.60;99.90;;;;;;4977918;28;20094;-94
2023/06/05 09:53:49;;;;;;;7.55;3.45;;;19.70;99.90;;;;;;4973599;28;20070;-94
2023/06/05 09:56:17;;;;;;;6.18;2.55;;;19.80;99.90;;;;;;4947588;28;20039;-92
2023/06/05 09:58:48;;;;;;;5.78;2.78;;;19.90;99.90;;;;;;4939687;28;20493;-90
2023/06/05 10:01:17;;;;;;;6.07;2.63;;;20.00;99.90;;;;;;4969431;28;20034;-90
2023/06/05 10:03:47;;;;;;;5.63;2.83;;;20.00;99.90;;;;;;4965346;28;20071;-90
2023/06/05 10:06:16;;;;;;;6.78;3.10;;;20.10;99.90;;;;;;4971389;28;20073;-91
2023/06/05 10:08:42;;;;;;;5.95;2.95;;;20.10;99.90;;;;;;4946268;28;20073;-90
2023/06/05 10:11:10;;;;;;;7.13;2.90;;;20.20;99.90;;;;;;4950523;28;20043;-90
2023/06/05 10:13:36;;;;;;;5.35;2.80;;;20.20;99.90;;;;;;4971357;28;20034;-90
2023/06/05 10:16:02;;;;;;;5.95;3.03;;;20.30;99.90;;;;;;4959472;28;20579;-90
2023/06/05 10:18:28;;;;;;;6.18;3.47;;;20.30;99.90;;;;;;4971435;28;20512;-90
2023/06/05 10:20:55;;;;;;;5.88;3.35;;;20.50;99.90;;;;;;4973721;28;20121;-90
2023/06/05 10:23:22;;;;;;;6.10;3.22;;;20.50;99.90;;;;;;4967945;28;20042;-91
2023/06/05 10:25:49;;;;;;;7.13;3.80;;;20.60;99.90;;;;;;4972240;28;20065;-90
2023/06/05 10:28:35;;;;;;;7.00;3.63;;;20.70;99.90;;;;;;4969462;28;20059;-90
2023/06/05 10:31:26;;;;;;;7.22;3.00;;;20.80;99.90;;;;;;4934579;28;20038;-90
2023/06/05 10:34:14;;;;;;;5.00;3.17;;;20.90;99.90;;;;;;4951494;28;20039;-90
2023/06/05 10:37:13;;;;;;;6.22;3.50;;;20.90;99.90;;;;;;4970766;28;20098;-89
2023/06/05 10:39:39;;;;;;;8.43;3.15;;;21.00;99.90;;;;;;4973160;28;20396;-86
2023/06/05 10:42:05;;;;;;;6.15;3.60;;;21.10;99.90;;;;;;4969086;28;20106;-93
2023/06/05 10:44:42;;;;;;;8.75;3.53;;;21.10;99.90;;;;;;4974224;28;20042;-90
2023/06/05 10:47:32;;;;;;;6.43;3.60;;;21.20;99.30;;;;;;4940607;28;20133;-91
2023/06/05 10:50:17;;;;;;;5.25;3.00;;;21.20;99.70;;;;;;4950523;28;20050;-89
2023/06/05 10:52:43;;;;;;;6.95;2.65;;;21.10;98.90;;;;;;4966613;28;20522;-92
2023/06/05 10:55:12;;;;;;;6.25;3.17;;;21.10;99.50;;;;;;4973449;28;20073;-91
2023/06/05 10:58:00;;;;;;;8.63;2.67;;;21.20;99.60;;;;;;4956900;28;20449;-91
2023/06/05 11:00:30;;;;;;;8.40;3.33;;;21.20;99.10;;;;;;4963462;28;20066;-91
2023/06/05 11:02:56;;;;;;;6.18;3.30;;;21.20;99.20;;;;;;4967611;28;20089;-91
2023/06/05 11:05:22;;;;;;;5.55;2.97;;;21.20;99.40;;;;;;4963491;28;20043;-91
2023/06/05 11:08:07;;;;;;;5.80;2.88;;;21.20;99.60;;;;;;4960510;28;20399;-91
2023/06/05 11:10:34;;;;;;;5.68;3.25;;;21.20;99.30;;;;;;4975134;28;20097;-91
2023/06/05 11:13:00;;;;;;;6.57;2.58;;;21.20;99.30;;;;;;4962920;28;20541;-91
2023/06/05 11:15:28;;;;;;;6.32;2.88;;;21.20;99.60;;;;;;4978452;28;20038;-94
2023/06/05 11:17:54;;;;;;;5.97;3.30;;;21.30;99.80;;;;;;4961240;28;20050;-91
2023/06/05 11:20:23;;;;;;;6.65;2.88;;;21.40;99.70;;;;;;4958592;28;20050;-92
2023/06/05 11:22:57;;;;;;;4.75;2.60;;;21.50;99.30;;;;;;4979631;28;20115;-91
2023/06/05 11:25:41;;;;;;;7.85;3.30;;;21.60;99.30;;;;;;4956526;28;20042;-91
2023/06/05 11:28:08;;;;;;;5.82;2.70;;;21.50;99.20;;;;;;4969840;28;20141;-92
2023/06/05 11:30:42;;;;;;;6.60;2.38;;;21.60;99.40;;;;;;4944523;28;20655;-91
2023/06/05 11:33:14;;;;;;;5.50;2.72;;;21.70;99.40;;;;;;4958017;28;20046;-92
2023/06/05 11:35:43;;;;;;;6.07;2.90;;;21.80;99.10;;;;;;4954855;28;20045;-91
2023/06/05 11:38:09;;;;;;;5.97;2.95;;;21.90;99.10;;;;;;4961073;28;20050;-93
2023/06/05 11:40:35;;;;;;;5.20;3.20;;;22.00;99.00;;;;;;4972846;28;20478;-93
2023/06/05 11:43:06;;;;;;;6.72;2.67;;;22.10;98.50;;;;;;4953746;28;20486;-92
2023/06/05 11:45:36;;;;;;;4.82;2.67;;;22.10;98.90;;;;;;4957794;28;20039;-91
2023/06/05 11:48:10;;;;;;;6.03;3.17;;;22.20;98.30;;;;;;4974369;28;20034;-94
2023/06/05 11:50:36;;;;;;;6.50;3.53;;;22.20;98.00;;;;;;4935458;28;20086;-88
2023/06/05 11:53:05;;;;;;;5.45;2.72;;;22.20;98.50;;;;;;4964608;28;20077;-89
2023/06/05 11:56:17;;;;;;;7.68;3.28;;;22.30;98.40;;;;;;4948391;28;20054;-90
2023/06/05 11:58:25;;;;;;;5.45;2.75;;;22.40;98.20;;;;;;4963521;28;20074;-90
2023/06/05 12:00:52;;;;;;;6.85;3.05;;;22.60;98.20;;;;;;4958973;28;20074;-90
2023/06/05 12:03:21;;;;;;;5.15;2.95;;;22.60;97.80;;;;;;4961230;28;20042;-90
2023/06/05 12:05:48;;;;;;;4.45;2.35;;;22.60;98.10;;;;;;4962156;28;20050;-91
2023/06/05 12:08:29;;;;;;;5.53;2.75;;;22.70;98.10;;;;;;4974950;28;20039;-91
2023/06/05 12:10:58;;;;;;;6.25;2.65;;;22.80;98.20;;;;;;4954049;28;20177;-89
2023/06/05 12:13:47;;;;;;;5.20;2.83;;;22.90;98.20;;;;;;4974439;28;20513;-89
2023/06/05 12:16:13;;;;;;;4.57;2.47;;;22.90;98.10;;;;;;4954376;28;20074;-89
2023/06/05 12:18:39;;;;;;;5.78;2.70;;;23.00;98.10;;;;;;4959798;28;20042;-88
2023/06/05 12:21:06;;;;;;;4.03;2.20;;;23.10;98.00;;;;;;4970749;28;20098;-88
2023/06/05 12:23:32;;;;;;;4.72;2.35;;;23.10;98.00;;;;;;4948314;28;20039;-88
2023/06/05 12:26:03;;;;;;;5.38;2.55;;;23.20;97.80;;;;;;4958399;28;20098;-89
2023/06/05 12:28:31;;;;;;;6.28;2.35;;;23.30;97.90;;;;;;4960341;28;20141;-89
2023/06/05 12:30:57;;;;;;;5.50;2.53;;;23.40;98.00;;;;;;4960636;28;20492;-89
2023/06/05 12:33:24;;;;;;;4.57;2.40;;;23.50;97.70;;;;;;4976207;28;20070;-86
2023/06/05 12:36:10;;;;;;;6.30;2.50;;;23.40;97.30;;;;;;4966189;28;20041;-86
2023/06/05 12:38:38;;;;;;;4.32;2.40;;;23.40;97.50;;;;;;4959238;28;20045;-86
2023/06/05 12:41:06;;;;;;;4.40;2.47;;;23.30;97.40;;;;;;4953752;28;20039;-87
2023/06/05 12:43:32;;;;;;;4.30;2.58;;;23.40;97.70;;;;;;4973381;28;20038;-87
2023/06/05 12:45:58;;;;;;;5.28;2.67;;;23.40;97.50;;;;;;4955982;28;20035;-86
2023/06/05 12:48:24;;;;;;;5.50;2.85;;;23.40;97.50;;;;;;4969912;28;20059;-87
2023/06/05 12:50:50;;;;;;;4.47;2.55;;;23.40;97.20;;;;;;4957434;28;20118;-90
2023/06/05 12:53:16;;;;;;;5.70;2.90;;;23.50;97.80;;;;;;4956154;28;20405;-91